Time,TemperatureF,DewpointF,PressureIn,WindDirection,WindDirectionDegrees,WindSpeedMPH,WindSpeedGustMPH,Humidity,HourlyPrecipIn,Conditions,Clouds,dailyrainin,SoftwareType,DateUTC
2013-02-25 00:01:00,28.0,17.0,-100.00,WSW,240,1.0,4.0,63,0.00,,,-99.99,,2013-02-25 05:01:00,
2013-02-25 00:11:00,28.0,18.0,-100.00,West,270,3.0,4.0,64,0.00,,,-99.99,,2013-02-25 05:11:00,
2013-02-25 00:22:00,28.0,18.0,-100.00,West,270,3.0,4.0,64,0.00,,,-99.99,,2013-02-25 05:22:00,
2013-02-25 00:32:00,28.0,18.0,-100.00,WSW,250,2.0,4.0,64,0.00,,,-99.99,,2013-02-25 05:32:00,
2013-02-25 00:42:00,28.0,17.0,-100.00,WNW,295,3.0,5.0,64,0.00,,,-99.99,,2013-02-25 05:42:00,
2013-02-25 00:52:00,28.0,17.0,-100.00,WNW,295,3.0,5.0,64,0.00,,,-99.99,,2013-02-25 05:52:00,
2013-02-25 01:02:00,28.0,18.0,-100.00,WSW,250,1.0,3.0,64,0.00,,,-99.99,,2013-02-25 06:02:00,
2013-02-25 01:12:00,28.0,18.0,-100.00,SW,230,0.0,1.0,65,0.00,,,-99.99,,2013-02-25 06:12:00,
2013-02-25 01:21:00,28.0,18.0,-100.00,SW,230,0.0,1.0,65,0.00,,,-99.99,,2013-02-25 06:21:00,
2013-02-25 01:32:00,28.0,18.0,-100.00,ESE,110,4.0,5.0,65,0.00,,,-99.99,,2013-02-25 06:32:00,
2013-02-25 01:42:00,28.0,18.0,-100.00,NE,35,1.0,3.0,65,0.00,,,-99.99,,2013-02-25 06:42:00,
2013-02-25 01:51:00,28.0,18.0,-100.00,NE,35,1.0,4.0,66,0.00,,,-99.99,,2013-02-25 06:51:00,
2013-02-25 02:01:00,28.0,18.0,-100.00,NE,35,1.0,4.0,66,0.00,,,-99.99,,2013-02-25 07:01:00,
2013-02-25 02:11:00,28.0,19.0,-100.00,North,5,4.0,10.0,67,0.00,,,-99.99,,2013-02-25 07:11:00,
2013-02-25 02:21:00,28.0,18.0,-100.00,North,350,2.0,3.0,66,0.00,,,-99.99,,2013-02-25 07:21:00,
2013-02-25 02:32:00,28.0,18.0,-100.00,North,350,2.0,3.0,66,0.00,,,-99.99,,2013-02-25 07:32:00,
2013-02-25 02:42:00,28.0,18.0,-100.00,ESE,120,2.0,3.0,66,0.00,,,-99.99,,2013-02-25 07:42:00,
2013-02-25 02:51:00,28.0,18.0,-100.00,NW,310,1.0,2.0,66,0.00,,,-99.99,,2013-02-25 07:51:00,
2013-02-25 03:01:00,28.0,18.0,-100.00,NW,310,1.0,2.0,66,0.00,,,-99.99,,2013-02-25 08:01:00,
2013-02-25 03:11:00,28.0,18.0,-100.00,NE,40,0.0,0.0,66,0.00,,,-99.99,,2013-02-25 08:11:00,
2013-02-25 03:21:00,29.0,18.0,-100.00,North,10,1.0,4.0,64,0.00,,,-99.99,,2013-02-25 08:21:00,
2013-02-25 03:32:00,29.0,18.0,-100.00,North,10,1.0,4.0,64,0.00,,,-99.99,,2013-02-25 08:32:00,
2013-02-25 03:42:00,29.0,17.0,-100.00,North,5,4.0,5.0,62,0.00,,,-99.99,,2013-02-25 08:42:00,
2013-02-25 03:52:00,29.0,17.0,-100.00,North,5,4.0,5.0,62,0.00,,,-99.99,,2013-02-25 08:52:00,
2013-02-25 04:01:00,29.0,18.0,-100.00,ENE,60,2.0,4.0,62,0.00,,,-99.99,,2013-02-25 09:01:00,
2013-02-25 04:12:00,29.0,17.0,-100.00,NNE,15,2.0,3.0,62,0.00,,,-99.99,,2013-02-25 09:12:00,
2013-02-25 04:21:00,29.0,17.0,-100.00,NNE,15,2.0,3.0,62,0.00,,,-99.99,,2013-02-25 09:21:00,
2013-02-25 04:32:00,29.0,17.0,-100.00,NNW,345,0.0,0.0,62,0.00,,,-99.99,,2013-02-25 09:32:00,
2013-02-25 04:42:00,28.0,17.0,-100.00,WNW,290,1.0,2.0,63,0.00,,,-99.99,,2013-02-25 09:42:00,
2013-02-25 04:52:00,28.0,16.0,-100.00,WNW,285,1.0,1.0,61,0.00,,,-99.99,,2013-02-25 09:52:00,
2013-02-25 05:01:00,28.0,16.0,-100.00,WNW,285,1.0,1.0,61,0.00,,,-99.99,,2013-02-25 10:01:00,
2013-02-25 05:11:00,28.0,17.0,-100.00,North,350,1.0,1.0,61,0.00,,,-99.99,,2013-02-25 10:11:00,
2013-02-25 05:21:00,28.0,17.0,-100.00,NW,305,4.0,5.0,61,0.00,,,-99.99,,2013-02-25 10:21:00,
2013-02-25 05:32:00,28.0,17.0,-100.00,NW,305,4.0,5.0,61,0.00,,,-99.99,,2013-02-25 10:32:00,
2013-02-25 05:42:00,28.0,16.0,-100.00,WNW,290,4.0,6.0,61,0.00,,,-99.99,,2013-02-25 10:42:00,
2013-02-25 05:52:00,28.0,16.0,-100.00,West,265,0.0,1.0,61,0.00,,,-99.99,,2013-02-25 10:52:00,
2013-02-25 06:01:00,28.0,16.0,-100.00,West,265,0.0,1.0,61,0.00,,,-99.99,,2013-02-25 11:01:00,
2013-02-25 06:11:00,26.0,16.0,-100.00,West,265,3.0,4.0,65,0.00,,,-99.99,,2013-02-25 11:11:00,
2013-02-25 06:22:00,26.0,16.0,-100.00,West,265,3.0,4.0,65,0.00,,,-99.99,,2013-02-25 11:22:00,
2013-02-25 06:32:00,27.0,16.0,-100.00,WNW,295,4.0,5.0,64,0.00,,,-99.99,,2013-02-25 11:32:00,
2013-02-25 06:42:00,28.0,16.0,-100.00,North,5,1.0,2.0,62,0.00,,,-99.99,,2013-02-25 11:42:00,
2013-02-25 06:52:00,27.0,17.0,-100.00,West,275,2.0,3.0,64,0.00,,,-99.99,,2013-02-25 11:52:00,
2013-02-25 07:02:00,27.0,17.0,-100.00,West,275,2.0,3.0,64,0.00,,,-99.99,,2013-02-25 12:02:00,
2013-02-25 07:11:00,28.0,16.0,-100.00,NNW,340,6.0,9.0,61,0.00,,,-99.99,,2013-02-25 12:11:00,
2013-02-25 07:21:00,28.0,16.0,-100.00,NNW,340,6.0,9.0,61,0.00,,,-99.99,,2013-02-25 12:21:00,
2013-02-25 07:32:00,28.0,16.0,-100.00,NNW,335,0.0,1.0,61,0.00,,,-99.99,,2013-02-25 12:32:00,
2013-02-25 07:42:00,27.0,17.0,-100.00,NW,325,1.0,2.0,64,0.00,,,-99.99,,2013-02-25 12:42:00,
2013-02-25 07:54:00,27.0,17.0,-100.00,NW,325,1.0,2.0,64,0.00,,,-99.99,,2013-02-25 12:54:00,
2013-02-25 08:02:00,28.0,17.0,-100.00,WNW,290,2.0,3.0,64,0.00,,,-99.99,,2013-02-25 13:02:00,
2013-02-25 08:12:00,29.0,17.0,-100.00,NNW,340,3.0,5.0,61,0.00,,,-99.99,,2013-02-25 13:12:00,
2013-02-25 08:23:00,30.0,18.0,-100.00,North,0,0.0,1.0,61,0.00,,,-99.99,,2013-02-25 13:23:00,
2013-02-25 08:32:00,30.0,18.0,-100.00,North,0,0.0,1.0,61,0.00,,,-99.99,,2013-02-25 13:32:00,
2013-02-25 08:42:00,31.0,18.0,-100.00,West,275,2.0,2.0,58,0.00,,,-99.99,,2013-02-25 13:42:00,
2013-02-25 08:52:00,33.0,18.0,-100.00,NNE,25,3.0,7.0,56,0.00,,,-99.99,,2013-02-25 13:52:00,
2013-02-25 09:03:00,33.0,18.0,-100.00,NNE,25,3.0,7.0,56,0.00,,,-99.99,,2013-02-25 14:03:00,
2013-02-25 09:18:00,34.0,19.0,-100.00,South,190,1.0,2.0,54,0.00,,,-99.99,,2013-02-25 14:18:00,
2013-02-25 09:32:00,34.0,18.0,-100.00,NNW,340,3.0,5.0,53,0.00,,,-99.99,,2013-02-25 14:32:00,
2013-02-25 09:42:00,35.0,18.0,-100.00,ESE,105,2.0,4.0,51,0.00,,,-99.99,,2013-02-25 14:42:00,
2013-02-25 09:52:00,35.0,18.0,-100.00,NNW,340,4.0,6.0,50,0.00,,,-99.99,,2013-02-25 14:52:00,
2013-02-25 10:03:00,35.0,18.0,-100.00,NNW,340,4.0,6.0,50,0.00,,,-99.99,,2013-02-25 15:03:00,
2013-02-25 10:11:00,37.0,18.0,-100.00,NE,45,4.0,7.0,47,0.00,,,-99.99,,2013-02-25 15:11:00,
2013-02-25 10:22:00,37.0,18.0,-100.00,NE,45,4.0,7.0,47,0.00,,,-99.99,,2013-02-25 15:22:00,
2013-02-25 10:32:00,38.0,18.0,-100.00,NE,45,3.0,8.0,45,0.00,,,-99.99,,2013-02-25 15:32:00,
2013-02-25 10:42:00,38.0,17.0,-100.00,North,0,2.0,4.0,43,0.00,,,-99.99,,2013-02-25 15:42:00,
2013-02-25 10:51:00,38.0,17.0,-100.00,East,80,4.0,5.0,42,0.00,,,-99.99,,2013-02-25 15:51:00,
2013-02-25 11:02:00,38.0,17.0,-100.00,East,80,4.0,5.0,42,0.00,,,-99.99,,2013-02-25 16:02:00,
2013-02-25 11:12:00,38.0,17.0,-100.00,SSW,200,1.0,2.0,42,0.00,,,-99.99,,2013-02-25 16:12:00,
2013-02-25 11:21:00,38.0,17.0,-100.00,SSW,200,1.0,2.0,42,0.00,,,-99.99,,2013-02-25 16:21:00,
2013-02-25 11:32:00,38.0,17.0,-100.00,SSE,155,2.0,2.0,42,0.00,,,-99.99,,2013-02-25 16:32:00,
2013-02-25 11:42:00,39.0,16.0,-100.00,East,95,6.0,8.0,39,0.00,,,-99.99,,2013-02-25 16:42:00,
2013-02-25 11:52:00,39.0,16.0,-100.00,East,95,6.0,8.0,39,0.00,,,-99.99,,2013-02-25 16:52:00,
2013-02-25 12:02:00,39.0,16.0,-100.00,East,85,2.0,2.0,39,0.00,,,-99.99,,2013-02-25 17:02:00,
2013-02-25 12:11:00,39.0,15.0,-100.00,SE,135,4.0,6.0,37,0.00,,,-99.99,,2013-02-25 17:11:00,
2013-02-25 12:21:00,39.0,15.0,-100.00,SE,135,4.0,6.0,37,0.00,,,-99.99,,2013-02-25 17:21:00,
2013-02-25 12:32:00,39.0,15.0,-100.00,South,170,4.0,8.0,38,0.00,,,-99.99,,2013-02-25 17:32:00,
2013-02-25 12:42:00,39.0,15.0,-100.00,SSE,150,5.0,7.0,38,0.00,,,-99.99,,2013-02-25 17:42:00,
2013-02-25 12:52:00,39.0,15.0,-100.00,SSE,150,5.0,7.0,38,0.00,,,-99.99,,2013-02-25 17:52:00,
2013-02-25 13:02:00,40.0,15.0,-100.00,NW,315,4.0,5.0,36,0.00,,,-99.99,,2013-02-25 18:02:00,
2013-02-25 13:12:00,41.0,16.0,-100.00,SE,145,4.0,7.0,36,0.00,,,-99.99,,2013-02-25 18:12:00,
2013-02-25 13:21:00,41.0,16.0,-100.00,SE,145,4.0,7.0,36,0.00,,,-99.99,,2013-02-25 18:21:00,
2013-02-25 13:33:00,40.0,15.0,-100.00,ESE,110,1.0,2.0,35,0.00,,,-99.99,,2013-02-25 18:33:00,
2013-02-25 13:42:00,41.0,14.0,-100.00,ESE,120,6.0,9.0,34,0.00,,,-99.99,,2013-02-25 18:42:00,
2013-02-25 13:51:00,42.0,15.0,-100.00,ENE,75,2.0,4.0,33,0.00,,,-99.99,,2013-02-25 18:51:00,
2013-02-25 14:01:00,42.0,15.0,-100.00,ENE,75,2.0,4.0,33,0.00,,,-99.99,,2013-02-25 19:01:00,
2013-02-25 14:11:00,41.0,14.0,-100.00,ESE,105,5.0,8.0,33,0.00,,,-99.99,,2013-02-25 19:11:00,
2013-02-25 14:21:00,41.0,14.0,-100.00,ESE,105,5.0,8.0,33,0.00,,,-99.99,,2013-02-25 19:21:00,
2013-02-25 14:32:00,42.0,15.0,-100.00,SE,135,4.0,4.0,33,0.00,,,-99.99,,2013-02-25 19:32:00,
2013-02-25 14:42:00,42.0,15.0,-100.00,East,80,3.0,5.0,33,0.00,,,-99.99,,2013-02-25 19:42:00,
2013-02-25 14:52:00,42.0,15.0,-100.00,East,80,3.0,5.0,33,0.00,,,-99.99,,2013-02-25 19:52:00,
2013-02-25 15:01:00,43.0,15.0,-100.00,SSW,210,1.0,3.0,32,0.00,,,-99.99,,2013-02-25 20:01:00,
2013-02-25 15:11:00,42.0,14.0,-100.00,ENE,75,3.0,5.0,32,0.00,,,-99.99,,2013-02-25 20:11:00,
2013-02-25 15:21:00,43.0,14.0,-100.00,North,0,1.0,2.0,31,0.00,,,-99.99,,2013-02-25 20:21:00,
2013-02-25 15:32:00,43.0,14.0,-100.00,North,0,1.0,2.0,31,0.00,,,-99.99,,2013-02-25 20:32:00,
2013-02-25 15:42:00,43.0,14.0,-100.00,West,270,1.0,2.0,31,0.00,,,-99.99,,2013-02-25 20:42:00,
2013-02-25 15:52:00,42.0,14.0,-100.00,ESE,120,6.0,7.0,32,0.00,,,-99.99,,2013-02-25 20:52:00,
2013-02-25 16:02:00,42.0,14.0,-100.00,ESE,120,6.0,7.0,32,0.00,,,-99.99,,2013-02-25 21:02:00,
2013-02-25 16:11:00,42.0,14.0,-100.00,SE,140,4.0,7.0,32,0.00,,,-99.99,,2013-02-25 21:11:00,
2013-02-25 16:21:00,42.0,14.0,-100.00,SSE,150,3.0,5.0,32,0.00,,,-99.99,,2013-02-25 21:21:00,
2013-02-25 16:32:00,42.0,14.0,-100.00,SSE,150,3.0,5.0,32,0.00,,,-99.99,,2013-02-25 21:32:00,
2013-02-25 16:42:00,42.0,14.0,-100.00,East,100,6.0,9.0,32,0.00,,,-99.99,,2013-02-25 21:42:00,
2013-02-25 16:51:00,42.0,14.0,-100.00,East,100,6.0,9.0,32,0.00,,,-99.99,,2013-02-25 21:51:00,
2013-02-25 17:01:00,42.0,14.0,-100.00,ENE,75,2.0,3.0,32,0.00,,,-99.99,,2013-02-25 22:01:00,
2013-02-25 17:11:00,42.0,14.0,-100.00,ESE,110,5.0,6.0,32,0.00,,,-99.99,,2013-02-25 22:11:00,
2013-02-25 17:21:00,42.0,14.0,-100.00,ESE,110,5.0,6.0,32,0.00,,,-99.99,,2013-02-25 22:21:00,
2013-02-25 17:32:00,41.0,13.0,-100.00,East,85,2.0,3.0,32,0.00,,,-99.99,,2013-02-25 22:32:00,
2013-02-25 17:42:00,40.0,13.0,-100.00,ESE,110,2.0,3.0,33,0.00,,,-99.99,,2013-02-25 22:42:00,
2013-02-25 17:52:00,40.0,13.0,-100.00,ESE,110,2.0,3.0,33,0.00,,,-99.99,,2013-02-25 22:52:00,
2013-02-25 18:01:00,40.0,13.0,-100.00,NNE,25,2.0,4.0,33,0.00,,,-99.99,,2013-02-25 23:01:00,
2013-02-25 18:11:00,40.0,13.0,-100.00,ESE,110,2.0,4.0,33,0.00,,,-99.99,,2013-02-25 23:11:00,
2013-02-25 18:22:00,38.0,13.0,-100.00,SE,130,2.0,2.0,35,0.00,,,-99.99,,2013-02-25 23:22:00,
2013-02-25 18:32:00,38.0,13.0,-100.00,SE,130,2.0,2.0,35,0.00,,,-99.99,,2013-02-25 23:32:00,
2013-02-25 18:42:00,38.0,13.0,-100.00,NNW,335,0.0,0.0,35,0.00,,,-99.99,,2013-02-25 23:42:00,
2013-02-25 18:52:00,38.0,13.0,-100.00,NE,50,1.0,1.0,36,0.00,,,-99.99,,2013-02-25 23:52:00,
2013-02-25 19:02:00,38.0,13.0,-100.00,NE,50,1.0,1.0,36,0.00,,,-99.99,,2013-02-26 00:02:00,
2013-02-25 19:12:00,38.0,13.0,-100.00,ENE,70,2.0,2.0,36,0.00,,,-99.99,,2013-02-26 00:12:00,
2013-02-25 19:22:00,38.0,13.0,-100.00,ENE,70,2.0,2.0,36,0.00,,,-99.99,,2013-02-26 00:22:00,
2013-02-25 19:32:00,37.0,13.0,-100.00,SE,140,0.0,1.0,38,0.00,,,-99.99,,2013-02-26 00:32:00,
2013-02-25 19:42:00,36.0,14.0,-100.00,SE,135,0.0,2.0,39,0.00,,,-99.99,,2013-02-26 00:42:00,
2013-02-25 19:51:00,36.0,14.0,-100.00,ESE,110,1.0,2.0,40,0.00,,,-99.99,,2013-02-26 00:51:00,
2013-02-25 20:02:00,36.0,14.0,-100.00,ESE,110,1.0,2.0,40,0.00,,,-99.99,,2013-02-26 01:02:00,
2013-02-25 20:11:00,36.0,14.0,-100.00,West,270,0.0,1.0,41,0.00,,,-99.99,,2013-02-26 01:11:00,
2013-02-25 20:21:00,36.0,14.0,-100.00,West,270,0.0,1.0,41,0.00,,,-99.99,,2013-02-26 01:21:00,
2013-02-25 20:32:00,35.0,14.0,-100.00,WNW,285,1.0,1.0,42,0.00,,,-99.99,,2013-02-26 01:32:00,
2013-02-25 20:42:00,35.0,14.0,-100.00,NW,315,0.0,0.0,42,0.00,,,-99.99,,2013-02-26 01:42:00,
2013-02-25 20:51:00,34.0,14.0,-100.00,WSW,245,0.0,1.0,44,0.00,,,-99.99,,2013-02-26 01:51:00,
2013-02-25 21:01:00,34.0,14.0,-100.00,WSW,245,0.0,1.0,44,0.00,,,-99.99,,2013-02-26 02:01:00,
2013-02-25 21:11:00,34.0,15.0,-100.00,WSW,250,0.0,1.0,44,0.00,,,-99.99,,2013-02-26 02:11:00,
2013-02-25 21:21:00,34.0,15.0,-100.00,WSW,250,0.0,1.0,44,0.00,,,-99.99,,2013-02-26 02:21:00,
2013-02-25 21:32:00,34.0,15.0,-100.00,East,80,0.0,0.0,45,0.00,,,-99.99,,2013-02-26 02:32:00,
2013-02-25 21:42:00,34.0,15.0,-100.00,WSW,250,0.0,0.0,45,0.00,,,-99.99,,2013-02-26 02:42:00,
2013-02-25 21:52:00,34.0,15.0,-100.00,NW,310,0.0,1.0,46,0.00,,,-99.99,,2013-02-26 02:52:00,
2013-02-25 22:02:00,34.0,15.0,-100.00,NW,310,0.0,1.0,46,0.00,,,-99.99,,2013-02-26 03:02:00,
2013-02-25 22:12:00,34.0,15.0,-100.00,West,270,0.0,0.0,47,0.00,,,-99.99,,2013-02-26 03:12:00,
2013-02-25 22:21:00,34.0,15.0,-100.00,West,270,0.0,0.0,47,0.00,,,-99.99,,2013-02-26 03:21:00,
2013-02-25 22:32:00,33.0,15.0,-100.00,West,275,0.0,0.0,47,0.00,,,-99.99,,2013-02-26 03:32:00,
2013-02-25 22:42:00,33.0,15.0,-100.00,WNW,300,2.0,2.0,49,0.00,,,-99.99,,2013-02-26 03:42:00,
2013-02-25 22:52:00,33.0,15.0,-100.00,WNW,300,2.0,2.0,49,0.00,,,-99.99,,2013-02-26 03:52:00,
2013-02-25 23:01:00,33.0,16.0,-100.00,West,275,1.0,2.0,49,0.00,,,-99.99,,2013-02-26 04:01:00,
2013-02-25 23:11:00,33.0,16.0,-100.00,NW,320,1.0,1.0,50,0.00,,,-99.99,,2013-02-26 04:11:00,
2013-02-25 23:22:00,33.0,16.0,-100.00,NW,320,1.0,1.0,50,0.00,,,-99.99,,2013-02-26 04:22:00,
2013-02-25 23:32:00,32.0,16.0,-100.00,SSW,200,0.0,1.0,51,0.00,,,-99.99,,2013-02-26 04:32:00,
2013-02-25 23:42:00,32.0,16.0,-100.00,WSW,250,2.0,2.0,51,0.00,,,-99.99,,2013-02-26 04:42:00,
2013-02-25 23:52:00,32.0,16.0,-100.00,WSW,250,2.0,2.0,51,0.00,,,-99.99,,2013-02-26 04:52:00,